createdAt,value
2018-09-09T00:01:12.693Z,5.90
2018-09-09T00:03:41.179Z,6.00
2018-09-09T00:06:09.626Z,5.83
2018-09-09T00:08:38.111Z,6.07
2018-09-09T00:11:06.947Z,6.20
2018-09-09T00:13:35.538Z,6.43
2018-09-09T00:16:03.990Z,6.10
2018-09-09T00:18:32.487Z,6.53
2018-09-09T00:21:00.946Z,6.30
2018-09-09T00:23:29.417Z,6.27
2018-09-09T00:25:57.872Z,6.40
2018-09-09T00:28:26.352Z,6.40
2018-09-09T00:30:54.848Z,6.23
2018-09-09T00:33:23.328Z,6.43
2018-09-09T00:35:51.795Z,6.77
2018-09-09T00:38:20.226Z,6.50
2018-09-09T00:40:48.726Z,7.43
2018-09-09T00:43:17.186Z,6.90
2018-09-09T00:45:45.682Z,6.63
2018-09-09T00:48:14.764Z,6.03
2018-09-09T00:50:48.455Z,6.53
2018-09-09T00:53:22.148Z,6.80
2018-09-09T00:55:50.626Z,6.23
2018-09-09T00:58:19.429Z,7.10
2018-09-09T01:00:53.294Z,6.70
2018-09-09T01:03:21.759Z,6.93
2018-09-09T01:05:50.238Z,6.57
2018-09-09T01:08:18.684Z,6.57
2018-09-09T01:10:47.172Z,6.67
2018-09-09T01:13:15.635Z,6.37
2018-09-09T01:15:44.115Z,6.43
2018-09-09T01:18:12.910Z,6.17
2018-09-09T01:20:41.754Z,6.30
2018-09-09T01:23:10.222Z,6.57
2018-09-09T01:25:38.708Z,6.53
2018-09-09T01:28:07.146Z,6.37
2018-09-09T01:30:35.642Z,6.60
2018-09-09T01:33:04.472Z,6.63
2018-09-09T01:35:33.343Z,6.60
2018-09-09T01:38:01.799Z,6.50
2018-09-09T01:40:30.258Z,6.07
2018-09-09T01:42:58.735Z,6.33
2018-09-09T01:45:27.190Z,5.93
2018-09-09T01:47:55.687Z,6.87
2018-09-09T01:50:24.552Z,7.23
2018-09-09T01:52:53.027Z,6.47
2018-09-09T01:55:21.468Z,6.97
2018-09-09T01:57:50.446Z,6.73
2018-09-09T02:00:18.939Z,7.60
2018-09-09T02:02:47.907Z,7.13
2018-09-09T02:05:16.697Z,7.03
2018-09-09T02:07:45.127Z,7.30
2018-09-09T02:10:13.537Z,6.83
2018-09-09T02:12:41.976Z,7.47
2018-09-09T02:15:10.422Z,6.77
2018-09-09T02:17:38.908Z,6.80
2018-09-09T02:20:07.686Z,7.40
2018-09-09T02:22:36.109Z,7.23
2018-09-09T02:25:04.595Z,7.07
2018-09-09T02:27:32.994Z,7.13
2018-09-09T02:30:01.382Z,7.40
2018-09-09T02:32:29.811Z,7.20
2018-09-09T02:34:58.207Z,7.27
2018-09-09T02:37:26.611Z,7.47
2018-09-09T02:39:55.027Z,6.77
2018-09-09T02:42:23.480Z,6.63
2018-09-09T02:44:52.098Z,7.43
2018-09-09T02:47:20.542Z,7.50
2018-09-09T02:49:48.963Z,7.13
2018-09-09T02:52:17.732Z,8.07
2018-09-09T02:54:46.166Z,7.30
2018-09-09T02:57:14.575Z,8.10
2018-09-09T02:59:42.990Z,7.83
2018-09-09T03:02:11.411Z,7.40
2018-09-09T03:04:39.834Z,7.87
2018-09-09T03:07:08.264Z,7.23
2018-09-09T03:09:36.695Z,7.87
2018-09-09T03:12:05.127Z,7.63
2018-09-09T03:14:33.937Z,7.20
2018-09-09T03:17:02.343Z,8.53
2018-09-09T03:19:30.768Z,7.30
2018-09-09T03:21:59.212Z,7.30
2018-09-09T03:24:27.647Z,7.90
2018-09-09T03:26:56.054Z,7.93
2018-09-09T03:29:24.502Z,8.43
2018-09-09T03:31:53.121Z,7.70
2018-09-09T03:34:21.534Z,7.73
2018-09-09T03:36:50.098Z,8.07
2018-09-09T03:39:18.510Z,8.17
2018-09-09T03:41:46.943Z,8.07
2018-09-09T03:44:15.367Z,8.83
2018-09-09T03:46:43.761Z,8.20
2018-09-09T03:49:12.183Z,8.70
2018-09-09T03:51:40.600Z,8.33
2018-09-09T03:54:09.031Z,8.50
2018-09-09T03:56:37.461Z,8.63
2018-09-09T03:59:05.900Z,8.17
2018-09-09T04:01:34.307Z,9.10
2018-09-09T04:04:02.739Z,8.50
2018-09-09T04:06:31.146Z,8.07
2018-09-09T04:08:59.566Z,8.83
2018-09-09T04:11:28.170Z,8.37
2018-09-09T04:13:56.638Z,8.33
2018-09-09T04:16:25.662Z,8.07
2018-09-09T04:18:54.164Z,8.50
2018-09-09T04:21:22.622Z,8.17
2018-09-09T04:23:51.037Z,8.63
2018-09-09T04:26:19.816Z,9.87
2018-09-09T04:28:48.235Z,7.70
2018-09-09T04:31:16.662Z,8.20
2018-09-09T04:33:45.062Z,8.70
2018-09-09T04:36:13.493Z,7.47
2018-09-09T04:38:41.898Z,7.53
2018-09-09T04:41:10.326Z,8.37
2018-09-09T04:43:38.747Z,8.40
2018-09-09T04:46:07.173Z,8.67
2018-09-09T04:48:35.586Z,7.30
2018-09-09T04:51:04.011Z,8.30
2018-09-09T04:53:32.427Z,8.70
2018-09-09T04:56:00.847Z,8.97
2018-09-09T04:58:29.254Z,8.10
2018-09-09T05:00:57.690Z,7.90
2018-09-09T05:03:26.112Z,8.27
2018-09-09T05:05:54.534Z,8.00
2018-09-09T05:08:22.933Z,7.50
2018-09-09T05:10:51.759Z,7.40
2018-09-09T05:13:20.219Z,8.40
2018-09-09T05:15:48.618Z,7.87
2018-09-09T05:18:17.038Z,7.93
2018-09-09T05:20:45.439Z,7.97
2018-09-09T05:23:13.869Z,8.40
2018-09-09T05:25:42.283Z,6.83
2018-09-09T05:28:10.701Z,7.80
2018-09-09T05:30:39.105Z,7.00
2018-09-09T05:33:07.551Z,7.87
2018-09-09T05:35:35.963Z,7.73
2018-09-09T05:38:04.762Z,7.73
2018-09-09T05:40:33.172Z,7.87
2018-09-09T05:43:01.586Z,7.53
2018-09-09T05:45:30.003Z,6.83
2018-09-09T05:47:59.310Z,7.20
2018-09-09T05:50:27.736Z,6.70
2018-09-09T05:52:56.160Z,6.63
2018-09-09T05:55:24.562Z,6.93
2018-09-09T05:57:53.013Z,7.00
2018-09-09T06:00:21.574Z,7.30
2018-09-09T06:02:50.014Z,7.00
2018-09-09T06:05:18.411Z,7.30
2018-09-09T06:07:46.862Z,6.77
2018-09-09T06:10:15.324Z,7.03
2018-09-09T06:12:43.714Z,6.33
2018-09-09T06:15:12.138Z,6.47
2018-09-09T06:17:40.553Z,6.87
2018-09-09T06:20:08.987Z,5.83
2018-09-09T06:22:37.505Z,6.80
2018-09-09T06:25:06.468Z,6.63
2018-09-09T06:27:34.880Z,6.47
2018-09-09T06:30:03.414Z,7.47
2018-09-09T06:32:31.845Z,7.00
2018-09-09T06:35:00.274Z,6.50
2018-09-09T06:37:30.378Z,6.80
2018-09-09T06:39:58.895Z,6.17
2018-09-09T06:42:27.302Z,6.90
2018-09-09T06:44:55.730Z,6.83
2018-09-09T06:47:24.112Z,6.60
2018-09-09T06:49:52.530Z,6.10
2018-09-09T06:52:20.936Z,6.50
2018-09-09T06:54:49.354Z,7.13
2018-09-09T06:57:17.748Z,6.87
2018-09-09T06:59:46.165Z,6.73
2018-09-09T07:02:14.606Z,6.13
2018-09-09T07:04:43.022Z,6.53
2018-09-09T07:07:11.418Z,7.00
2018-09-09T07:09:39.870Z,5.97
2018-09-09T07:12:08.415Z,6.10
2018-09-09T07:14:37.074Z,6.40
2018-09-09T07:17:05.517Z,5.93
2018-09-09T07:19:34.119Z,6.27
2018-09-09T07:22:02.544Z,6.03
2018-09-09T07:24:30.966Z,6.07
2018-09-09T07:26:59.382Z,6.03
2018-09-09T07:29:28.120Z,6.33
2018-09-09T07:31:56.565Z,5.97
2018-09-09T07:34:24.981Z,5.70
2018-09-09T07:36:53.607Z,5.87
2018-09-09T07:39:22.035Z,5.93
2018-09-09T07:41:50.555Z,5.60
2018-09-09T07:44:18.948Z,5.80
2018-09-09T07:46:47.394Z,6.30
2018-09-09T07:49:15.830Z,5.07
2018-09-09T07:51:44.257Z,5.33
2018-09-09T07:54:12.669Z,5.53
2018-09-09T07:56:41.134Z,4.83
2018-09-09T07:59:09.594Z,5.67
2018-09-09T08:01:38.044Z,5.73
2018-09-09T08:04:06.863Z,5.30
2018-09-09T08:06:35.344Z,5.00
2018-09-09T08:09:04.798Z,5.63
2018-09-09T08:11:37.799Z,5.17
2018-09-09T08:14:07.401Z,5.90
2018-09-09T08:16:35.886Z,5.23
2018-09-09T08:19:04.356Z,5.60
2018-09-09T08:21:33.492Z,5.40
2018-09-09T08:24:01.961Z,5.47
2018-09-09T08:26:30.364Z,5.37
2018-09-09T08:28:58.795Z,5.00
2018-09-09T08:31:27.215Z,5.23
2018-09-09T08:33:55.638Z,5.10
2018-09-09T08:36:24.041Z,4.77
2018-09-09T08:38:52.517Z,4.37
2018-09-09T08:41:20.934Z,4.33
2018-09-09T08:43:49.364Z,4.40
2018-09-09T08:46:18.135Z,4.47
2018-09-09T08:48:46.586Z,4.73
2018-09-09T08:51:14.997Z,4.13
2018-09-09T08:53:43.431Z,3.67
2018-09-09T08:56:11.832Z,3.70
2018-09-09T08:58:40.263Z,3.57
2018-09-09T09:01:08.678Z,4.00
2018-09-09T09:03:37.118Z,3.77
2018-09-09T09:06:05.572Z,4.20
2018-09-09T09:08:33.967Z,3.80
2018-09-09T09:11:02.510Z,3.30
2018-09-09T09:13:30.915Z,3.47
2018-09-09T09:15:59.380Z,3.73
2018-09-09T09:18:27.838Z,3.70
2018-09-09T09:20:56.423Z,4.00
2018-09-09T09:23:24.834Z,2.97
2018-09-09T09:25:54.430Z,2.60
2018-09-09T09:28:23.733Z,3.43
2018-09-09T09:30:52.924Z,3.20
2018-09-09T09:33:21.366Z,2.93
2018-09-09T09:35:52.454Z,2.77
2018-09-09T09:38:21.851Z,3.13
2018-09-09T09:40:50.817Z,2.57
2018-09-09T09:43:19.226Z,3.00
2018-09-09T09:45:47.658Z,2.70
2018-09-09T09:48:16.055Z,3.10
2018-09-09T09:50:44.518Z,2.60
2018-09-09T09:53:13.135Z,3.33
2018-09-09T09:55:41.733Z,2.77
2018-09-09T09:58:10.151Z,3.00
2018-09-09T10:00:43.918Z,3.10
2018-09-09T10:03:12.325Z,3.07
2018-09-09T10:05:40.762Z,2.90
2018-09-09T10:08:09.171Z,3.13
2018-09-09T10:10:37.601Z,3.10
2018-09-09T10:13:06.389Z,3.33
2018-09-09T10:15:34.852Z,3.10
2018-09-09T10:18:03.293Z,3.27
2018-09-09T10:20:31.691Z,2.80
2018-09-09T10:23:00.127Z,3.93
2018-09-09T10:25:28.527Z,3.73
2018-09-09T10:28:59.347Z,3.57
2018-09-09T10:31:27.766Z,3.53
2018-09-09T10:33:56.175Z,3.00
2018-09-09T10:36:24.588Z,3.57
2018-09-09T10:38:52.987Z,3.00
2018-09-09T10:41:21.406Z,3.10
2018-09-09T10:43:49.822Z,3.50
2018-09-09T10:46:19.401Z,3.20
2018-09-09T10:48:48.667Z,2.73
2018-09-09T10:51:17.110Z,3.37
2018-09-09T10:53:45.510Z,3.53
2018-09-09T10:56:14.302Z,3.27
2018-09-09T10:58:42.726Z,2.77
2018-09-09T11:01:11.306Z,2.50
2018-09-09T11:03:39.761Z,2.37
2018-09-09T11:06:08.170Z,2.67
2018-09-09T11:09:39.475Z,2.57
2018-09-09T11:12:08.446Z,1.97
2018-09-09T11:14:36.859Z,2.30
2018-09-09T11:18:30.967Z,2.07
2018-09-09T11:20:59.374Z,2.60
2018-09-09T11:23:27.819Z,2.70
2018-09-09T11:25:56.265Z,3.07
2018-09-09T11:28:24.683Z,3.07
2018-09-09T11:30:53.088Z,2.70
2018-09-09T11:33:21.558Z,2.60
2018-09-09T11:35:50.002Z,2.37
2018-09-09T11:38:18.770Z,2.40
2018-09-09T11:40:47.344Z,2.13
2018-09-09T11:43:15.858Z,2.33
2018-09-09T11:45:44.272Z,2.50
2018-09-09T11:48:12.690Z,2.60
2018-09-09T11:50:41.128Z,2.73
2018-09-09T11:53:09.601Z,2.57
2018-09-09T11:55:38.187Z,2.70
2018-09-09T11:58:06.978Z,3.10
2018-09-09T12:00:35.499Z,2.23
2018-09-09T12:03:03.903Z,2.30
2018-09-09T12:05:32.339Z,2.83
2018-09-09T12:08:00.730Z,2.90
2018-09-09T12:10:29.218Z,2.70
2018-09-09T12:12:57.613Z,2.70
2018-09-09T12:15:26.049Z,2.80
2018-09-09T12:17:54.438Z,2.77
2018-09-09T12:20:22.885Z,2.63
2018-09-09T12:22:51.299Z,3.00
2018-09-09T12:25:19.794Z,3.10
2018-09-09T12:27:48.211Z,2.70
2018-09-09T12:30:16.642Z,3.03
2018-09-09T12:32:45.250Z,2.60
2018-09-09T12:35:13.856Z,2.40
2018-09-09T12:37:42.415Z,2.33
2018-09-09T12:40:10.931Z,2.33
2018-09-09T12:42:39.383Z,2.40
2018-09-09T12:45:13.258Z,2.37
2018-09-09T12:49:53.033Z,2.43
2018-09-09T12:52:21.503Z,2.40
2018-09-09T12:54:49.960Z,2.10
2018-09-09T12:57:18.412Z,1.80
2018-09-09T12:59:46.950Z,2.20
2018-09-09T13:02:15.412Z,2.40
2018-09-09T13:04:43.876Z,2.13
2018-09-09T13:07:12.402Z,2.03
2018-09-09T13:09:41.032Z,1.80
2018-09-09T13:12:09.534Z,1.93
2018-09-09T13:14:38.011Z,2.10
2018-09-09T13:17:06.528Z,2.10
2018-09-09T13:19:35.042Z,1.83
2018-09-09T13:22:03.530Z,1.87
2018-09-09T13:25:34.454Z,1.80
2018-09-09T13:28:02.997Z,2.10
2018-09-09T13:30:31.504Z,2.03
2018-09-09T13:33:00.011Z,2.10
2018-09-09T13:35:28.615Z,2.00
2018-09-09T13:37:57.194Z,2.07
2018-09-09T13:40:25.903Z,2.20
2018-09-09T13:42:54.870Z,2.20
2018-09-09T13:45:23.386Z,2.40
2018-09-09T13:47:51.875Z,2.20
2018-09-09T13:50:20.727Z,2.13
2018-09-09T13:52:49.246Z,2.47
2018-09-09T13:55:17.723Z,2.03
2018-09-09T13:57:46.233Z,2.17
2018-09-09T14:00:14.716Z,2.40
2018-09-09T14:02:43.200Z,2.50
2018-09-09T14:05:11.699Z,2.43
2018-09-09T14:07:40.218Z,2.43
2018-09-09T14:10:08.847Z,2.67
2018-09-09T14:12:37.374Z,2.50
2018-09-09T14:15:06.183Z,3.00
2018-09-09T14:17:34.858Z,2.47
2018-09-09T14:20:03.783Z,2.50
2018-09-09T14:22:32.292Z,2.93
2018-09-09T14:25:00.933Z,2.73
2018-09-09T14:27:29.445Z,2.53
2018-09-09T14:29:57.908Z,2.80
2018-09-09T14:32:26.389Z,2.50
2018-09-09T14:34:54.847Z,2.30
2018-09-09T14:37:23.358Z,2.50
2018-09-09T14:39:51.803Z,2.53
2018-09-09T14:42:20.309Z,2.70
2018-09-09T14:44:48.818Z,2.60
2018-09-09T14:47:17.318Z,3.07
2018-09-09T14:49:45.814Z,2.93
2018-09-09T14:52:14.294Z,2.73
2018-09-09T14:54:42.786Z,2.57
2018-09-09T14:57:11.257Z,2.30
2018-09-09T14:59:40.165Z,2.93
2018-09-09T15:02:08.650Z,3.13
2018-09-09T15:04:37.155Z,3.07
2018-09-09T15:07:05.962Z,3.10
2018-09-09T15:09:34.459Z,2.60
2018-09-09T15:12:02.971Z,2.33
2018-09-09T15:14:31.471Z,2.83
2018-09-09T15:18:02.679Z,2.50
2018-09-09T15:20:31.162Z,3.03
2018-09-09T15:22:59.649Z,2.40
2018-09-09T15:25:28.127Z,2.50
2018-09-09T15:27:56.604Z,2.60
2018-09-09T15:30:25.127Z,2.63
2018-09-09T15:32:53.623Z,2.93
2018-09-09T15:35:22.115Z,2.60
2018-09-09T15:37:50.619Z,2.10
2018-09-09T15:40:19.134Z,2.40
2018-09-09T15:42:47.603Z,2.20
2018-09-09T15:45:16.083Z,2.40
2018-09-09T15:47:44.599Z,2.50
2018-09-09T15:50:13.059Z,2.53
2018-09-09T15:52:41.560Z,2.50
2018-09-09T15:55:10.383Z,2.83
2018-09-09T15:57:38.876Z,2.73
2018-09-09T16:00:07.348Z,2.40
2018-09-09T16:02:35.864Z,2.67
2018-09-09T16:05:04.796Z,2.97
2018-09-09T16:07:33.346Z,2.77
2018-09-09T16:10:01.821Z,3.30
2018-09-09T16:12:30.306Z,2.87
2018-09-09T16:14:58.793Z,2.57
2018-09-09T16:17:27.369Z,2.67
2018-09-09T16:19:55.919Z,2.57
2018-09-09T16:22:24.550Z,2.27
2018-09-09T16:24:53.163Z,2.27
2018-09-09T16:27:21.662Z,2.43
2018-09-09T16:29:50.170Z,2.40
2018-09-09T16:32:18.671Z,2.20
2018-09-09T16:34:47.187Z,2.27
2018-09-09T16:37:15.711Z,2.17
2018-09-09T16:39:44.350Z,2.00
2018-09-09T16:42:12.947Z,2.17
2018-09-09T16:44:41.411Z,2.20
2018-09-09T16:47:09.891Z,2.40
2018-09-09T16:49:38.349Z,2.60
2018-09-09T16:52:06.974Z,2.60
2018-09-09T16:54:35.459Z,2.60
2018-09-09T16:57:03.984Z,2.80
2018-09-09T16:59:32.479Z,2.60
2018-09-09T17:02:00.927Z,2.13
2018-09-09T17:04:29.406Z,2.20
2018-09-09T17:06:57.881Z,2.37
2018-09-09T17:09:26.390Z,1.90
2018-09-09T17:11:54.887Z,2.33
2018-09-09T17:14:23.350Z,3.13
2018-09-09T17:16:51.831Z,2.00
2018-09-09T17:19:20.323Z,2.57
2018-09-09T17:21:48.775Z,2.40
2018-09-09T17:24:17.237Z,2.30
2018-09-09T17:26:45.731Z,2.00
2018-09-09T17:29:14.250Z,2.20
2018-09-09T17:31:42.705Z,2.27
2018-09-09T17:34:11.179Z,2.20
2018-09-09T17:36:39.660Z,2.20
2018-09-09T17:39:09.619Z,2.83
2018-09-09T17:41:38.334Z,2.00
2018-09-09T17:44:06.887Z,2.23
2018-09-09T17:46:35.347Z,3.13
2018-09-09T17:49:04.322Z,2.73
2018-09-09T17:51:32.763Z,2.50
2018-09-09T17:54:01.223Z,2.40
2018-09-09T17:56:29.732Z,2.47
2018-09-09T17:58:58.532Z,2.20
2018-09-09T18:01:27.024Z,2.50
2018-09-09T18:03:55.486Z,2.50
2018-09-09T18:06:23.979Z,2.67
2018-09-09T18:08:52.459Z,2.83
2018-09-09T18:11:20.971Z,2.40
2018-09-09T18:13:49.604Z,2.30
2018-09-09T18:16:18.100Z,2.80
2018-09-09T18:18:46.559Z,2.83
2018-09-09T18:21:15.031Z,2.67
2018-09-09T18:23:43.470Z,2.77
2018-09-09T18:26:11.943Z,2.90
2018-09-09T18:28:40.418Z,2.53
2018-09-09T18:31:09.273Z,2.63
2018-09-09T18:33:37.752Z,2.57
2018-09-09T18:36:06.235Z,3.00
2018-09-09T18:38:34.703Z,2.90
2018-09-09T18:41:03.387Z,2.93
2018-09-09T18:43:32.584Z,2.50
2018-09-09T18:46:01.129Z,2.70
2018-09-09T18:48:29.622Z,3.20
2018-09-09T18:50:58.092Z,2.30
2018-09-09T18:53:26.599Z,3.20
2018-09-09T18:55:55.082Z,2.80
2018-09-09T18:58:23.615Z,2.90
2018-09-09T19:00:52.123Z,3.10
2018-09-09T19:03:20.602Z,2.80
2018-09-09T19:05:49.090Z,2.83
2018-09-09T19:08:17.600Z,3.33
2018-09-09T19:10:46.079Z,3.00
2018-09-09T19:13:14.559Z,2.87
2018-09-09T19:15:43.018Z,2.90
2018-09-09T19:18:11.536Z,2.97
2018-09-09T19:20:39.987Z,3.30
2018-09-09T19:23:08.527Z,2.90
2018-09-09T19:25:37.023Z,3.87
2018-09-09T19:28:05.923Z,3.27
2018-09-09T19:30:34.395Z,3.83
2018-09-09T19:33:02.874Z,4.67
2018-09-09T19:35:31.374Z,4.47
2018-09-09T19:37:59.862Z,4.33
2018-09-09T19:40:28.361Z,5.57
2018-09-09T19:42:57.230Z,5.93
2018-09-09T19:45:25.739Z,5.03
2018-09-09T19:47:54.245Z,5.57
2018-09-09T19:50:22.727Z,4.57
2018-09-09T19:52:54.207Z,5.57
2018-09-09T19:55:22.759Z,5.87
2018-09-09T19:57:51.271Z,6.10
2018-09-09T20:00:20.447Z,7.23
2018-09-09T20:02:48.938Z,8.93
2018-09-09T20:05:20.942Z,8.43
2018-09-09T20:07:50.402Z,7.87
2018-09-09T20:10:18.947Z,7.63
2018-09-09T20:12:48.166Z,5.87
2018-09-09T20:15:17.313Z,5.93
2018-09-09T20:17:47.332Z,5.87
2018-09-09T20:20:16.001Z,5.30
2018-09-09T20:22:45.222Z,5.17
2018-09-09T20:25:13.760Z,4.80
2018-09-09T20:27:42.266Z,4.87
2018-09-09T20:30:10.804Z,4.27
2018-09-09T20:32:39.264Z,3.80
2018-09-09T20:35:08.444Z,4.10
2018-09-09T20:37:37.298Z,4.17
2018-09-09T20:40:06.931Z,3.77
2018-09-09T20:42:35.924Z,4.40
2018-09-09T20:45:04.873Z,3.67
2018-09-09T20:47:33.391Z,4.47
2018-09-09T20:50:01.904Z,3.73
2018-09-09T20:52:30.459Z,3.70
2018-09-09T20:54:59.180Z,4.23
2018-09-09T20:57:27.686Z,3.70
2018-09-09T20:59:56.193Z,4.27
2018-09-09T21:02:24.650Z,3.57
2018-09-09T21:04:53.482Z,4.20
2018-09-09T21:07:21.981Z,4.83
2018-09-09T21:09:50.466Z,4.33
2018-09-09T21:12:18.947Z,4.40
2018-09-09T21:14:47.432Z,4.37
2018-09-09T21:17:15.955Z,4.63
2018-09-09T21:19:44.427Z,5.07
2018-09-09T21:22:12.921Z,4.60
2018-09-09T21:24:41.560Z,4.60
2018-09-09T21:27:10.046Z,5.07
2018-09-09T21:29:38.511Z,5.23
2018-09-09T21:32:07.010Z,5.40
2018-09-09T21:34:35.473Z,4.53
2018-09-09T21:37:04.007Z,5.00
2018-09-09T21:39:32.466Z,5.47
2018-09-09T21:42:00.939Z,5.60
2018-09-09T21:44:29.417Z,5.10
2018-09-09T21:46:57.874Z,4.40
2018-09-09T21:49:26.354Z,5.73
2018-09-09T21:51:54.812Z,5.67
2018-09-09T21:54:23.298Z,5.00
2018-09-09T21:56:51.744Z,4.90
2018-09-09T21:59:20.253Z,4.90
2018-09-09T22:01:53.962Z,5.90
2018-09-09T22:04:22.469Z,5.50
2018-09-09T22:06:51.183Z,5.97
2018-09-09T22:09:19.659Z,4.90
2018-09-09T22:11:48.179Z,5.47
2018-09-09T22:14:16.664Z,6.10
2018-09-09T22:16:45.120Z,4.90
2018-09-09T22:19:13.594Z,5.53
2018-09-09T22:21:42.059Z,5.63
2018-09-09T22:24:10.530Z,6.27
2018-09-09T22:26:38.999Z,5.23
2018-09-09T22:29:07.507Z,5.03
2018-09-09T22:31:36.432Z,5.00
2018-09-09T22:34:04.915Z,5.70
2018-09-09T22:36:33.404Z,4.77
2018-09-09T22:39:01.935Z,5.10
2018-09-09T22:41:30.399Z,5.07
2018-09-09T22:43:59.447Z,5.63
2018-09-09T22:46:27.991Z,5.03
2018-09-09T22:48:56.455Z,5.63
2018-09-09T22:51:24.925Z,5.20
2018-09-09T22:53:53.494Z,5.23
2018-09-09T22:56:21.982Z,4.87
2018-09-09T22:58:50.438Z,5.20
2018-09-09T23:01:18.969Z,5.57
2018-09-09T23:03:47.457Z,5.47
2018-09-09T23:06:16.299Z,4.70
2018-09-09T23:08:44.771Z,5.67
2018-09-09T23:11:13.248Z,5.07
2018-09-09T23:13:42.015Z,5.80
2018-09-09T23:16:10.552Z,6.10
2018-09-09T23:18:39.024Z,5.37
2018-09-09T23:21:07.851Z,5.27
2018-09-09T23:23:36.342Z,5.23
2018-09-09T23:26:05.215Z,5.33
2018-09-09T23:28:33.651Z,5.57
2018-09-09T23:31:02.150Z,5.27
2018-09-09T23:33:30.614Z,5.60
2018-09-09T23:35:59.086Z,4.83
2018-09-09T23:38:27.560Z,5.50
2018-09-09T23:40:56.085Z,5.20
2018-09-09T23:43:24.552Z,5.73
2018-09-09T23:45:53.126Z,5.60
2018-09-09T23:48:21.582Z,5.90
2018-09-09T23:50:50.030Z,5.87
2018-09-09T23:53:18.523Z,5.40
2018-09-09T23:55:47.017Z,5.77
2018-09-09T23:58:15.478Z,5.13
